createdAt,value
2022-07-25T00:01:30.122Z,19.94
2022-07-25T00:03:56.759Z,19.95
2022-07-25T00:06:23.034Z,19.90
2022-07-25T00:08:49.278Z,19.85
2022-07-25T00:11:15.530Z,19.85
2022-07-25T00:13:41.772Z,19.91
2022-07-25T00:16:08.085Z,19.98
2022-07-25T00:18:34.337Z,19.97
2022-07-25T00:21:00.581Z,20.02
2022-07-25T00:23:26.823Z,19.92
2022-07-25T00:25:53.080Z,20.00
2022-07-25T00:28:19.327Z,19.95
2022-07-25T00:30:45.630Z,19.87
2022-07-25T00:33:11.919Z,19.91
2022-07-25T00:35:38.160Z,19.94
2022-07-25T00:38:04.389Z,19.88
2022-07-25T00:40:30.631Z,19.90
2022-07-25T00:42:56.876Z,19.87
2022-07-25T00:45:23.127Z,19.84
2022-07-25T00:47:49.367Z,19.81
2022-07-25T00:50:15.730Z,19.81
2022-07-25T00:52:42.006Z,19.80
2022-07-25T00:55:08.300Z,19.76
2022-07-25T00:57:34.547Z,19.69
2022-07-25T01:00:00.817Z,19.66
2022-07-25T01:02:27.135Z,19.60
2022-07-25T01:04:53.396Z,19.51
2022-07-25T01:07:19.657Z,19.57
2022-07-25T01:09:45.899Z,19.50
2022-07-25T01:12:12.141Z,19.46
2022-07-25T01:14:38.606Z,19.41
2022-07-25T01:17:04.867Z,19.33
2022-07-25T01:19:31.116Z,19.37
2022-07-25T01:21:57.365Z,19.31
2022-07-25T01:24:23.598Z,19.29
2022-07-25T01:26:49.844Z,19.30
2022-07-25T01:29:16.081Z,19.32
2022-07-25T01:31:42.331Z,19.31
2022-07-25T01:34:08.993Z,19.31
2022-07-25T01:36:35.635Z,19.31
2022-07-25T01:39:01.881Z,19.32
2022-07-25T01:41:28.131Z,19.41
2022-07-25T01:43:54.368Z,19.50
2022-07-25T01:46:20.659Z,19.48
2022-07-25T01:48:47.027Z,19.53
2022-07-25T01:51:13.330Z,19.45
2022-07-25T01:53:39.572Z,19.40
2022-07-25T01:56:06.059Z,19.40
2022-07-25T01:58:34.498Z,19.35
2022-07-25T02:01:00.775Z,19.31
2022-07-25T02:03:27.062Z,19.29
2022-07-25T02:05:53.332Z,19.32
2022-07-25T02:08:19.591Z,19.32
2022-07-25T02:10:45.875Z,19.22
2022-07-25T02:13:12.144Z,19.16
2022-07-25T02:15:38.390Z,19.20
2022-07-25T02:18:04.646Z,19.20
2022-07-25T02:20:30.903Z,19.23
2022-07-25T02:22:57.160Z,19.21
2022-07-25T02:25:23.403Z,19.17
2022-07-25T02:27:49.666Z,19.26
2022-07-25T02:30:15.910Z,19.24
2022-07-25T02:32:42.157Z,19.24
2022-07-25T02:35:13.174Z,19.22
2022-07-25T02:37:39.781Z,19.22
2022-07-25T02:40:06.341Z,19.17
2022-07-25T02:42:32.591Z,19.19
2022-07-25T02:44:58.842Z,19.15
2022-07-25T02:47:25.086Z,19.17
2022-07-25T02:49:51.326Z,19.18
2022-07-25T02:52:17.583Z,19.15
2022-07-25T02:54:43.830Z,19.13
2022-07-25T02:57:10.086Z,19.05
2022-07-25T02:59:36.321Z,19.10
2022-07-25T03:02:02.582Z,19.07
2022-07-25T03:04:28.887Z,19.07
2022-07-25T03:06:55.186Z,19.00
2022-07-25T03:09:21.425Z,18.97
2022-07-25T03:11:47.669Z,18.89
2022-07-25T03:14:13.910Z,18.96
2022-07-25T03:16:40.175Z,19.02
2022-07-25T03:19:06.440Z,19.04
2022-07-25T03:21:32.694Z,19.23
2022-07-25T03:23:58.924Z,19.26
2022-07-25T03:26:25.180Z,19.29
2022-07-25T03:28:51.612Z,19.21
2022-07-25T03:31:18.215Z,19.11
2022-07-25T03:33:44.482Z,19.05
2022-07-25T03:36:10.730Z,19.08
2022-07-25T03:38:37.130Z,19.15
2022-07-25T03:41:03.353Z,19.18
2022-07-25T03:43:30.443Z,19.18
2022-07-25T03:45:56.724Z,19.12
2022-07-25T03:48:23.146Z,19.14
2022-07-25T03:50:49.411Z,19.20
2022-07-25T03:53:15.653Z,19.24
2022-07-25T03:55:41.896Z,19.26
2022-07-25T03:58:08.142Z,19.31
2022-07-25T04:00:34.390Z,19.26
2022-07-25T04:03:01.099Z,19.38
2022-07-25T04:05:27.335Z,19.38
2022-07-25T04:07:53.587Z,19.34
2022-07-25T04:10:19.929Z,19.40
2022-07-25T04:12:46.190Z,19.46
2022-07-25T04:15:12.426Z,19.55
2022-07-25T04:17:39.604Z,19.61
2022-07-25T04:20:06.350Z,19.73
2022-07-25T04:22:33.651Z,19.74
2022-07-25T04:24:59.914Z,19.84
2022-07-25T04:27:26.148Z,19.77
2022-07-25T04:29:52.397Z,19.78
2022-07-25T04:32:23.128Z,19.84
2022-07-25T04:34:49.866Z,19.86
2022-07-25T04:37:16.118Z,19.88
2022-07-25T04:39:42.366Z,19.97
2022-07-25T04:42:08.605Z,19.99
2022-07-25T04:44:34.935Z,20.04
2022-07-25T04:47:01.191Z,20.13
2022-07-25T04:49:27.424Z,20.14
2022-07-25T04:51:53.693Z,20.14
2022-07-25T04:54:19.940Z,20.27
2022-07-25T04:56:46.196Z,20.26
2022-07-25T04:59:12.428Z,20.31
2022-07-25T05:01:38.737Z,20.45
2022-07-25T05:04:05.383Z,20.60
2022-07-25T05:06:31.845Z,20.62
2022-07-25T05:08:58.073Z,20.63
2022-07-25T05:11:24.305Z,20.76
2022-07-25T05:13:50.550Z,20.76
2022-07-25T05:16:16.823Z,20.79
2022-07-25T05:18:43.154Z,20.79
2022-07-25T05:21:09.994Z,20.86
2022-07-25T05:23:36.250Z,20.95
2022-07-25T05:26:02.483Z,21.08
2022-07-25T05:28:28.726Z,21.17
2022-07-25T05:30:54.958Z,21.34
2022-07-25T05:33:21.197Z,21.47
2022-07-25T05:35:47.425Z,21.55
2022-07-25T05:38:13.686Z,21.66
2022-07-25T05:40:39.921Z,21.76
2022-07-25T05:43:06.176Z,21.85
2022-07-25T05:45:32.413Z,22.02
2022-07-25T05:47:58.654Z,22.36
2022-07-25T05:50:24.920Z,22.80
2022-07-25T05:52:51.251Z,23.53
2022-07-25T05:55:17.549Z,24.45
2022-07-25T05:57:43.820Z,25.48
2022-07-25T06:00:10.352Z,25.68
2022-07-25T06:02:36.748Z,25.16
2022-07-25T06:05:03.097Z,24.65
2022-07-25T06:07:29.347Z,24.91
2022-07-25T06:09:55.594Z,24.73
2022-07-25T06:12:21.842Z,24.74
2022-07-25T06:14:50.583Z,25.07
2022-07-25T06:17:17.029Z,25.87
2022-07-25T06:19:43.262Z,26.17
2022-07-25T06:22:09.501Z,26.95
2022-07-25T06:24:35.748Z,26.46
2022-07-25T06:27:01.990Z,26.50
2022-07-25T06:29:28.246Z,26.27
2022-07-25T06:31:54.542Z,26.49
2022-07-25T06:34:20.800Z,26.62
2022-07-25T06:36:47.048Z,26.32
2022-07-25T06:39:13.304Z,26.54
2022-07-25T06:41:39.572Z,26.26
2022-07-25T06:44:06.164Z,26.34
2022-07-25T06:46:32.632Z,25.88
2022-07-25T06:48:59.091Z,25.77
2022-07-25T06:51:25.401Z,25.67
2022-07-25T06:53:51.655Z,25.55
2022-07-25T06:56:17.978Z,25.90
2022-07-25T06:58:44.241Z,26.11
2022-07-25T07:01:10.552Z,26.39
2022-07-25T07:03:36.998Z,26.98
2022-07-25T07:06:06.380Z,27.85
2022-07-25T07:08:32.681Z,27.95
2022-07-25T07:10:58.941Z,28.57
2022-07-25T07:13:25.177Z,28.69
2022-07-25T07:15:51.633Z,28.76
2022-07-25T07:18:18.161Z,29.07
2022-07-25T07:20:44.388Z,29.28
2022-07-25T07:23:10.630Z,29.02
2022-07-25T07:25:36.873Z,28.91
2022-07-25T07:28:03.628Z,28.68
2022-07-25T07:30:58.732Z,28.34
2022-07-25T07:33:16.154Z,28.26
2022-07-25T07:35:45.353Z,28.99
2022-07-25T07:38:11.599Z,28.89
2022-07-25T07:40:37.842Z,28.79
2022-07-25T07:43:04.085Z,28.88
2022-07-25T07:45:30.325Z,29.08
2022-07-25T07:47:56.553Z,29.03
2022-07-25T07:50:23.518Z,28.62
2022-07-25T07:52:49.843Z,28.29
2022-07-25T07:55:16.090Z,28.92
2022-07-25T07:57:42.328Z,28.46
2022-07-25T08:00:11.450Z,28.01
2022-07-25T08:02:43.890Z,27.88
2022-07-25T08:05:10.215Z,28.21
2022-07-25T08:07:36.455Z,28.95
2022-07-25T08:10:02.715Z,29.91
2022-07-25T08:12:28.956Z,30.37
2022-07-25T08:14:55.216Z,30.32
2022-07-25T08:17:26.494Z,30.60
2022-07-25T08:19:54.646Z,30.62
2022-07-25T08:22:20.880Z,30.01
2022-07-25T08:24:47.131Z,29.56
2022-07-25T08:27:13.361Z,29.45
2022-07-25T08:29:39.607Z,29.94
2022-07-25T08:32:05.857Z,30.42
2022-07-25T08:34:32.114Z,30.33
2022-07-25T08:36:58.430Z,30.39
2022-07-25T08:39:24.684Z,30.55
2022-07-25T08:41:50.913Z,30.23
2022-07-25T08:44:17.213Z,30.15
2022-07-25T08:46:43.613Z,30.71
2022-07-25T08:49:10.018Z,31.09
2022-07-25T08:51:36.376Z,31.35
2022-07-25T08:54:02.648Z,31.23
2022-07-25T08:56:28.902Z,31.26
2022-07-25T08:58:55.155Z,30.97
2022-07-25T09:01:21.463Z,31.75
2022-07-25T09:03:47.835Z,31.64
2022-07-25T09:06:15.591Z,31.64
2022-07-25T09:08:57.503Z,31.68
2022-07-25T09:11:33.599Z,31.48
2022-07-25T09:14:00.307Z,31.43
2022-07-25T09:16:32.925Z,31.93
2022-07-25T09:19:06.177Z,32.34
2022-07-25T09:21:32.431Z,32.30
2022-07-25T09:24:07.681Z,32.54
2022-07-25T09:26:53.972Z,32.13
2022-07-25T09:29:21.320Z,31.81
2022-07-25T09:31:47.688Z,32.27
2022-07-25T09:34:16.351Z,32.71
2022-07-25T09:36:55.028Z,32.21
2022-07-25T09:39:21.309Z,32.66
2022-07-25T09:41:47.561Z,32.46
2022-07-25T09:44:16.944Z,32.74
2022-07-25T09:46:43.316Z,32.99
2022-07-25T09:49:09.641Z,32.95
2022-07-25T09:51:35.919Z,32.92
2022-07-25T09:54:05.456Z,32.67
2022-07-25T09:56:32.123Z,32.62
2022-07-25T09:58:58.430Z,32.74
2022-07-25T10:01:26.396Z,32.46
2022-07-25T10:03:52.728Z,32.40
2022-07-25T10:06:30.478Z,32.54
2022-07-25T10:08:56.834Z,32.58
2022-07-25T10:11:23.738Z,32.59
2022-07-25T10:13:49.968Z,32.20
2022-07-25T10:16:20.345Z,31.94
2022-07-25T10:18:53.502Z,32.12
2022-07-25T10:21:28.332Z,32.30
2022-07-25T10:24:01.080Z,32.44
2022-07-25T10:26:27.327Z,32.94
2022-07-25T10:28:53.642Z,33.05
2022-07-25T10:31:26.452Z,33.21
2022-07-25T10:33:56.257Z,32.88
2022-07-25T10:36:22.575Z,32.99
2022-07-25T10:38:50.803Z,33.18
2022-07-25T10:41:17.043Z,33.34
2022-07-25T10:43:48.374Z,33.20
2022-07-25T10:46:19.510Z,33.59
2022-07-25T10:48:56.308Z,33.32
2022-07-25T10:51:25.765Z,33.29
2022-07-25T10:53:52.009Z,32.99
2022-07-25T10:56:19.081Z,32.68
2022-07-25T10:58:49.864Z,32.47
2022-07-25T11:01:22.930Z,32.41
2022-07-25T11:03:49.674Z,32.15
2022-07-25T11:06:16.126Z,32.26
2022-07-25T11:08:42.810Z,32.60
2022-07-25T11:11:09.244Z,32.30
2022-07-25T11:13:39.151Z,32.08
2022-07-25T11:16:05.601Z,32.00
2022-07-25T11:18:35.533Z,32.00
2022-07-25T11:21:06.190Z,31.91
2022-07-25T11:23:33.270Z,31.87
2022-07-25T11:26:09.805Z,32.08
2022-07-25T11:28:39.770Z,32.24
2022-07-25T11:31:06.077Z,32.22
2022-07-25T11:33:32.318Z,32.03
2022-07-25T11:35:58.555Z,31.91
2022-07-25T11:38:25.226Z,31.93
2022-07-25T11:40:52.786Z,31.72
2022-07-25T11:43:19.642Z,31.51
2022-07-25T11:45:55.009Z,31.41
2022-07-25T11:48:21.294Z,31.33
2022-07-25T11:50:47.532Z,31.36
2022-07-25T11:53:15.149Z,31.43
2022-07-25T11:55:42.426Z,31.38
2022-07-25T11:58:08.994Z,31.53
2022-07-25T12:00:45.035Z,31.90
2022-07-25T12:03:15.573Z,32.22
2022-07-25T12:05:45.556Z,31.95
2022-07-25T12:08:15.436Z,32.05
2022-07-25T12:10:41.806Z,31.90
2022-07-25T12:13:08.081Z,31.65
2022-07-25T12:15:37.097Z,31.78
2022-07-25T12:18:03.501Z,32.11
2022-07-25T12:20:33.261Z,32.21
2022-07-25T12:23:00.276Z,32.26
2022-07-25T12:25:30.850Z,32.28
2022-07-25T12:27:57.496Z,32.25
2022-07-25T12:30:23.834Z,32.06
2022-07-25T12:32:50.123Z,32.13
2022-07-25T12:35:16.358Z,32.20
2022-07-25T12:37:42.606Z,32.18
2022-07-25T12:40:09.393Z,32.12
2022-07-25T12:42:35.681Z,32.01
2022-07-25T12:45:01.923Z,31.83
2022-07-25T12:47:28.206Z,31.59
2022-07-25T12:49:54.555Z,31.44
2022-07-25T12:52:20.861Z,31.56
2022-07-25T12:54:47.130Z,31.53
2022-07-25T12:57:13.610Z,31.61
2022-07-25T12:59:39.902Z,31.33
2022-07-25T13:02:06.195Z,31.23
2022-07-25T13:04:32.478Z,30.89
2022-07-25T13:06:58.710Z,30.81
2022-07-25T13:09:25.198Z,30.85
2022-07-25T13:11:51.541Z,30.76
2022-07-25T13:14:17.793Z,30.82
2022-07-25T13:16:44.344Z,30.71
2022-07-25T13:19:11.224Z,30.58
2022-07-25T13:21:37.626Z,30.39
2022-07-25T13:24:03.958Z,30.23
2022-07-25T13:26:30.714Z,30.42
2022-07-25T13:28:59.925Z,30.16
2022-07-25T13:31:26.447Z,30.40
2022-07-25T13:33:52.744Z,30.53
2022-07-25T13:36:18.977Z,30.35
2022-07-25T13:38:45.233Z,30.45
2022-07-25T13:41:11.465Z,30.57
2022-07-25T13:43:37.717Z,30.84
2022-07-25T13:46:04.020Z,31.05
2022-07-25T13:48:31.410Z,31.10
2022-07-25T13:50:57.933Z,31.36
2022-07-25T13:53:29.464Z,31.26
2022-07-25T13:55:56.431Z,31.39
2022-07-25T13:58:22.688Z,31.25
2022-07-25T14:00:48.951Z,31.37
2022-07-25T14:03:15.402Z,31.31
2022-07-25T14:05:41.665Z,31.50
2022-07-25T14:08:07.900Z,31.68
2022-07-25T14:10:34.232Z,32.13
2022-07-25T14:13:00.663Z,32.21
2022-07-25T14:15:26.921Z,32.52
2022-07-25T14:17:53.162Z,32.52
2022-07-25T14:20:19.403Z,32.71
2022-07-25T14:22:45.645Z,32.39
2022-07-25T14:25:11.966Z,31.74
2022-07-25T14:27:38.338Z,31.38
2022-07-25T14:30:05.278Z,31.16
2022-07-25T14:32:31.523Z,30.81
2022-07-25T14:34:57.777Z,30.80
2022-07-25T14:37:24.466Z,30.66
2022-07-25T14:39:50.709Z,30.61
2022-07-25T14:42:16.951Z,30.47
2022-07-25T14:44:43.203Z,30.39
2022-07-25T14:47:12.562Z,30.19
2022-07-25T14:49:39.804Z,29.97
2022-07-25T14:52:06.030Z,29.83
2022-07-25T14:54:32.283Z,29.50
2022-07-25T14:56:58.520Z,29.27
2022-07-25T14:59:24.758Z,29.15
2022-07-25T15:01:50.994Z,29.05
2022-07-25T15:04:17.299Z,29.05
2022-07-25T15:06:43.615Z,28.90
2022-07-25T15:09:10.321Z,28.66
2022-07-25T15:11:36.864Z,28.47
2022-07-25T15:14:03.093Z,28.10
2022-07-25T15:16:29.387Z,27.74
2022-07-25T15:21:42.116Z,27.40
2022-07-25T15:24:08.365Z,27.49
2022-07-25T15:26:36.327Z,27.65
2022-07-25T15:29:02.578Z,27.64
2022-07-25T15:31:28.905Z,27.53
2022-07-25T15:33:55.169Z,27.56
2022-07-25T15:36:25.709Z,27.67
2022-07-25T15:38:55.159Z,27.84
2022-07-25T15:41:21.426Z,27.92
2022-07-25T15:43:47.663Z,27.93
2022-07-25T15:46:13.953Z,28.02
2022-07-25T15:48:40.305Z,28.20
2022-07-25T15:51:06.613Z,28.29
2022-07-25T15:53:32.841Z,28.35
2022-07-25T15:55:59.086Z,28.40
2022-07-25T15:58:25.322Z,28.34
2022-07-25T16:00:51.653Z,28.44
2022-07-25T16:03:17.915Z,28.47
2022-07-25T16:05:44.158Z,28.40
2022-07-25T16:08:10.404Z,28.44
2022-07-25T16:10:36.701Z,28.45
2022-07-25T16:13:02.940Z,28.36
2022-07-25T16:15:29.205Z,28.33
2022-07-25T16:18:00.110Z,28.24
2022-07-25T16:20:28.537Z,28.13
2022-07-25T16:22:54.771Z,28.08
2022-07-25T16:25:21.611Z,27.95
2022-07-25T16:27:47.854Z,27.77
2022-07-25T16:30:14.247Z,27.41
2022-07-25T16:32:40.474Z,27.28
2022-07-25T16:35:06.806Z,26.90
2022-07-25T16:37:33.057Z,26.49
2022-07-25T16:39:59.311Z,25.87
2022-07-25T16:42:25.561Z,25.50
2022-07-25T16:44:51.825Z,25.09
2022-07-25T16:47:18.061Z,24.74
2022-07-25T16:49:44.394Z,24.31
2022-07-25T16:52:10.734Z,24.15
2022-07-25T16:54:36.983Z,24.00
2022-07-25T16:57:03.280Z,23.80
2022-07-25T16:59:29.519Z,23.72
2022-07-25T17:01:55.814Z,23.61
2022-07-25T17:04:22.664Z,23.47
2022-07-25T17:06:49.019Z,23.50
2022-07-25T17:09:15.276Z,23.38
2022-07-25T17:11:41.531Z,23.37
2022-07-25T17:14:07.782Z,23.45
2022-07-25T17:16:34.118Z,23.23
2022-07-25T17:19:01.421Z,23.43
2022-07-25T17:21:27.674Z,23.41
2022-07-25T17:23:53.906Z,23.14
2022-07-25T17:26:20.339Z,22.85
2022-07-25T17:28:46.671Z,22.97
2022-07-25T17:31:13.013Z,23.18
2022-07-25T17:33:39.264Z,23.06
2022-07-25T17:36:05.636Z,22.79
2022-07-25T17:38:34.979Z,22.74
2022-07-25T17:41:01.504Z,22.71
2022-07-25T17:43:27.740Z,22.80
2022-07-25T17:45:54.036Z,22.62
2022-07-25T17:48:20.269Z,22.61
2022-07-25T17:50:46.525Z,21.89
2022-07-25T17:53:14.142Z,21.77
2022-07-25T17:55:41.861Z,21.75
2022-07-25T17:58:11.104Z,21.87
2022-07-25T18:00:37.391Z,21.90
2022-07-25T18:03:03.781Z,21.76
2022-07-25T18:05:30.082Z,21.83
2022-07-25T18:07:56.338Z,21.95
2022-07-25T18:10:22.789Z,21.56
2022-07-25T18:12:49.117Z,21.43
2022-07-25T18:15:15.397Z,21.39
2022-07-25T18:17:44.924Z,21.23
2022-07-25T18:20:11.432Z,21.16
2022-07-25T18:22:37.696Z,21.17
2022-07-25T18:25:05.254Z,21.29
2022-07-25T18:27:31.503Z,21.07
2022-07-25T18:29:57.755Z,21.25
2022-07-25T18:32:24.003Z,21.43
2022-07-25T18:34:50.248Z,21.23
2022-07-25T18:37:16.510Z,21.13
2022-07-25T18:39:42.746Z,21.31
2022-07-25T18:42:08.994Z,21.36
2022-07-25T18:44:35.239Z,21.46
2022-07-25T18:47:01.638Z,21.16
2022-07-25T18:49:28.147Z,21.29
2022-07-25T18:51:54.403Z,21.17
2022-07-25T18:54:20.647Z,20.99
2022-07-25T18:56:46.890Z,20.93
2022-07-25T18:59:13.138Z,21.14
2022-07-25T19:01:39.416Z,20.86
2022-07-25T19:04:05.982Z,21.16
2022-07-25T19:06:32.542Z,21.30
2022-07-25T19:08:58.792Z,21.40
2022-07-25T19:11:25.038Z,21.45
2022-07-25T19:13:51.647Z,21.62
2022-07-25T19:16:18.046Z,21.73
2022-07-25T19:18:44.375Z,21.58
2022-07-25T19:21:10.628Z,21.52
2022-07-25T19:23:36.947Z,21.40
2022-07-25T19:26:03.189Z,21.46
2022-07-25T19:28:29.425Z,21.47
2022-07-25T19:30:56.058Z,21.43
2022-07-25T19:33:22.341Z,21.65
2022-07-25T19:35:48.587Z,21.75
2022-07-25T19:38:14.833Z,21.82
2022-07-25T19:40:41.068Z,21.82
2022-07-25T19:43:07.324Z,21.76
2022-07-25T19:45:33.556Z,21.87
2022-07-25T19:47:59.835Z,21.77
2022-07-25T19:50:26.082Z,21.85
2022-07-25T19:52:52.332Z,21.61
2022-07-25T19:55:18.578Z,21.62
2022-07-25T19:57:44.845Z,21.71
2022-07-25T20:00:11.234Z,21.85
2022-07-25T20:02:40.481Z,21.89
2022-07-25T20:05:07.071Z,21.94
2022-07-25T20:07:33.314Z,22.03
2022-07-25T20:09:59.560Z,22.12
2022-07-25T20:12:25.834Z,22.03
2022-07-25T20:14:52.068Z,22.04
2022-07-25T20:17:18.876Z,21.83
2022-07-25T20:19:45.269Z,21.87
2022-07-25T20:22:11.532Z,21.85
2022-07-25T20:24:37.765Z,21.76
2022-07-25T20:27:04.022Z,21.89
2022-07-25T20:29:30.259Z,21.95
2022-07-25T20:31:56.514Z,21.53
2022-07-25T20:34:22.768Z,21.56
2022-07-25T20:36:49.009Z,21.53
2022-07-25T20:39:15.245Z,21.42
2022-07-25T20:41:41.504Z,21.30
2022-07-25T20:44:10.840Z,21.33
2022-07-25T20:46:37.126Z,21.31
2022-07-25T20:49:03.830Z,21.15
2022-07-25T20:51:30.294Z,20.88
2022-07-25T20:53:56.580Z,21.08
2022-07-25T20:56:24.841Z,21.05
2022-07-25T20:58:51.078Z,21.02
2022-07-25T21:01:17.386Z,21.15
2022-07-25T21:03:43.671Z,21.30
2022-07-25T21:06:09.933Z,21.35
2022-07-25T21:08:36.178Z,21.35
2022-07-25T21:11:02.429Z,21.31
2022-07-25T21:13:32.821Z,21.29
2022-07-25T21:15:59.414Z,21.40
2022-07-25T21:18:25.666Z,21.39
2022-07-25T21:20:51.915Z,21.36
2022-07-25T21:23:18.157Z,21.21
2022-07-25T21:25:44.400Z,21.02
2022-07-25T21:28:10.639Z,20.92
2022-07-25T21:30:36.875Z,20.92
2022-07-25T21:33:03.237Z,20.83
2022-07-25T21:35:51.780Z,20.89
2022-07-25T21:38:26.738Z,20.84
2022-07-25T21:40:54.720Z,20.79
2022-07-25T21:43:20.968Z,20.65
2022-07-25T21:45:47.276Z,20.36
2022-07-25T21:48:13.550Z,20.36
2022-07-25T21:50:42.310Z,20.13
2022-07-25T21:53:11.103Z,19.98
2022-07-25T21:55:37.588Z,20.10
2022-07-25T21:58:03.846Z,19.97
2022-07-25T22:00:33.190Z,19.90
2022-07-25T22:02:59.713Z,19.75
2022-07-25T22:05:26.005Z,19.63
2022-07-25T22:07:52.253Z,19.63
2022-07-25T22:10:18.744Z,19.76
2022-07-25T22:12:45.007Z,19.77
2022-07-25T22:15:12.051Z,19.71
2022-07-25T22:17:48.883Z,19.75
2022-07-25T22:20:16.712Z,19.77
2022-07-25T22:22:42.963Z,19.68
2022-07-25T22:25:09.361Z,19.52
2022-07-25T22:27:35.611Z,19.72
2022-07-25T22:30:02.037Z,19.57
2022-07-25T22:32:28.291Z,19.76
2022-07-25T22:34:54.538Z,19.84
2022-07-25T22:37:20.787Z,19.74
2022-07-25T22:39:47.036Z,19.50
2022-07-25T22:42:16.334Z,19.56
2022-07-25T22:44:42.676Z,19.75
2022-07-25T22:47:08.929Z,19.79
2022-07-25T22:49:35.164Z,19.80
2022-07-25T22:52:01.411Z,19.85
2022-07-25T22:54:27.662Z,19.82
2022-07-25T22:56:53.891Z,19.81
2022-07-25T22:59:20.134Z,19.83
2022-07-25T23:01:46.367Z,19.75
2022-07-25T23:04:12.670Z,19.66
2022-07-25T23:06:38.930Z,19.53
2022-07-25T23:09:05.536Z,19.63
2022-07-25T23:11:31.962Z,19.53
2022-07-25T23:13:58.205Z,19.39
2022-07-25T23:16:24.457Z,19.31
2022-07-25T23:18:50.744Z,19.48
2022-07-25T23:21:16.991Z,19.55
2022-07-25T23:23:43.233Z,19.41
2022-07-25T23:26:09.489Z,19.50
2022-07-25T23:28:35.764Z,19.55
2022-07-25T23:31:02.042Z,19.57
2022-07-25T23:33:28.459Z,19.61
2022-07-25T23:35:55.463Z,19.43
2022-07-25T23:38:21.890Z,19.39
2022-07-25T23:40:48.329Z,19.34
2022-07-25T23:43:15.162Z,19.17
2022-07-25T23:45:49.778Z,19.04
2022-07-25T23:48:17.328Z,18.91
2022-07-25T23:50:43.560Z,18.83
2022-07-25T23:53:09.807Z,18.89
2022-07-25T23:55:36.051Z,18.92
2022-07-25T23:58:13.243Z,18.94
